Decoded Metar for UARR (URALSK in KAZAKHSTAN) (IATA:URA) | Meteo·Mobile Aviation Weather
aviador You're here:

UARR Decoded Metar

URALSK in KAZAKHSTAN
Report Time2019-07-23 02:30:00
UTC Time2019-07-23 02:52:20
Flight Rules vfr VFR
Wind330° at 8 kt
W.Decomp.*RWY 04: 1.7 kt HW 7.8 kt LCW
Visibility9999 m
Phenomena:N/A
Clouds:N/A
Expected CloudBase > 2,000 ft AGL from Temp-Dew spread
CeilingNone
Temp18°C (ISA +3)
Dew Point13°C (73% RH)
AAT16.1°C
QNH1013 hPa
Density Alt709 ft
Elevation125 ft
Report Wrong Elevation
Raw Report
UARR 230230Z 33004MPS CAVOK 18/13 Q1013 R04/CLRD70 NOSIG RMK
QFE756/1009=

Extra information for UARR:More info

Metar Taf Metar & Taf Last 4 Metars F.Rules Stats Wind Profile Meteogram Temp Stats Airport Information Weather charts Add Link Nearby VenuesMetar ALERT Operation Metar Decoded Social comments